Metar GG30 METAR message from awiacja.imgw.pl Metar G30 EPBY METAR EPBY 201530Z 21009KT 180V240 CAVOK 06/M02 Q1018=